Time;durP1;ratioP1;P1;durP2;ratioP2;P2;SDS_P1;SDS_P2;PMS_P1;PMS_P2;Temp;Humidity;BMP_temperature;BMP_pressure;BME280_temperature;BME280_humidity;BME280_pressure;Samples;Min_cycle;Max_cycle;Signal;HPM_P1;HPM_P2
2022/03/25 00:00:03;;;;;;;55.07;35.87;;;;;;;4.66;77.19;103043.53;5050990;28;20260;-72
2022/03/25 00:02:39;;;;;;;54.70;36.50;;;;;;;4.64;77.57;103042.50;5051288;28;20178;-71
2022/03/25 00:05:05;;;;;;;53.00;35.43;;;;;;;4.45;76.61;103036.75;5051227;28;20662;-72
2022/03/25 00:07:31;;;;;;;57.37;37.47;;;;;;;4.42;76.86;103035.63;5051185;28;20240;-72
2022/03/25 00:09:56;;;;;;;61.73;37.10;;;;;;;4.42;76.95;103039.03;5049682;28;20213;-71
2022/03/25 00:12:22;;;;;;;55.83;34.50;;;;;;;4.48;77.19;103036.13;5049826;28;20674;-71
2022/03/25 00:14:47;;;;;;;55.47;36.43;;;;;;;4.43;76.94;103038.31;5051159;28;20181;-71
2022/03/25 00:17:12;;;;;;;56.60;36.03;;;;;;;4.38;76.13;103036.16;5049835;28;20189;-72
2022/03/25 00:19:38;;;;;;;56.60;36.90;;;;;;;4.39;76.46;103035.38;5045265;28;20276;-71
2022/03/25 00:22:03;;;;;;;60.67;36.90;;;;;;;4.41;76.61;103034.75;5056047;28;20186;-72
2022/03/25 00:24:28;;;;;;;59.60;38.33;;;;;;;4.37;76.90;103040.34;5066317;28;20185;-72
2022/03/25 00:26:54;;;;;;;58.03;37.27;;;;;;;4.29;77.35;103036.34;5049437;28;20259;-71
2022/03/25 00:29:19;;;;;;;57.83;37.63;;;;;;;4.27;77.56;103044.53;5050920;28;20214;-72
2022/03/25 00:31:45;;;;;;;66.40;41.93;;;;;;;4.30;78.19;103032.13;5041819;28;20198;-71
2022/03/25 00:34:11;;;;;;;64.23;39.87;;;;;;;4.25;78.30;103036.84;5030746;28;20191;-71
2022/03/25 00:36:36;;;;;;;65.67;40.73;;;;;;;4.15;77.49;103036.84;5012839;28;20202;-71
2022/03/25 00:39:02;;;;;;;63.47;39.40;;;;;;;4.12;77.45;103034.09;5012799;28;20364;-72
2022/03/25 00:41:28;;;;;;;61.33;39.00;;;;;;;4.12;76.96;103035.72;5028954;28;20234;-71
2022/03/25 00:43:54;;;;;;;60.63;37.73;;;;;;;4.11;77.26;103037.41;5030413;28;20217;-72
2022/03/25 00:46:19;;;;;;;64.63;38.90;;;;;;;4.07;76.97;103027.78;5030394;28;20611;-72
2022/03/25 00:48:45;;;;;;;57.27;36.97;;;;;;;3.96;77.61;103036.13;5029011;28;20194;-72
2022/03/25 00:51:10;;;;;;;60.33;37.50;;;;;;;3.90;77.46;103044.88;5028919;28;20225;-72
2022/03/25 00:53:36;;;;;;;61.23;37.67;;;;;;;3.88;77.74;103036.28;5030513;28;20194;-71
2022/03/25 00:56:03;;;;;;;59.00;37.33;;;;;;;3.87;77.71;103037.94;5028845;28;20698;-72
2022/03/25 00:58:29;;;;;;;64.00;37.87;;;;;;;3.86;77.43;103038.69;5028926;28;20190;-72
2022/03/25 01:00:55;;;;;;;62.73;38.00;;;;;;;3.80;77.05;103042.38;5028724;28;20182;-71
2022/03/25 01:03:21;;;;;;;59.70;38.23;;;;;;;3.76;76.99;103037.81;5028994;28;20186;-72
2022/03/25 01:05:49;;;;;;;59.50;37.10;;;;;;;3.73;76.57;103035.94;5030158;28;20210;-72
2022/03/25 01:08:14;;;;;;;59.40;36.60;;;;;;;3.69;76.85;103044.03;5030164;28;20182;-71
2022/03/25 01:10:41;;;;;;;61.63;37.73;;;;;;;3.71;77.59;103042.53;5029765;28;20319;-71
2022/03/25 01:13:07;;;;;;;55.07;36.77;;;;;;;3.68;77.34;103036.34;5030040;28;20200;-72
2022/03/25 01:15:33;;;;;;;55.00;36.37;;;;;;;3.63;77.39;103040.13;5028524;28;20233;-71
2022/03/25 01:18:00;;;;;;;65.37;38.40;;;;;;;3.61;76.70;103042.53;5029993;28;20698;-72
2022/03/25 01:20:25;;;;;;;61.53;36.80;;;;;;;3.55;77.09;103039.47;5056579;28;20201;-72
2022/03/25 01:22:51;;;;;;;62.03;37.63;;;;;;;3.54;78.35;103040.25;5069705;28;20627;-72
2022/03/25 01:25:17;;;;;;;59.80;37.20;;;;;;;3.54;77.38;103036.84;5068579;28;20212;-71
2022/03/25 01:27:44;;;;;;;59.07;35.37;;;;;;;3.51;78.51;103034.06;5068634;28;20188;-71
2022/03/25 01:30:10;;;;;;;57.67;36.40;;;;;;;3.52;77.27;103043.41;5068000;28;20220;-72
2022/03/25 01:32:35;;;;;;;59.50;37.47;;;;;;;3.50;77.98;103042.41;5053813;28;20189;-72
2022/03/25 01:35:01;;;;;;;57.30;35.97;;;;;;;3.46;78.34;103036.22;5048235;28;20214;-72
2022/03/25 01:37:29;;;;;;;59.67;37.07;;;;;;;3.47;78.05;103044.69;5065043;28;20193;-72
2022/03/25 01:39:55;;;;;;;62.53;34.83;;;;;;;3.38;78.78;103041.38;5048097;28;20231;-71
2022/03/25 01:42:31;;;;;;;65.07;38.60;;;;;;;3.38;78.21;103037.22;5047800;28;20193;-71
2022/03/25 01:44:57;;;;;;;55.93;36.77;;;;;;;3.40;78.80;103048.34;5048061;28;20194;-72
2022/03/25 01:47:27;;;;;;;59.07;37.03;;;;;;;3.34;78.54;103049.47;5049455;28;20247;-72
2022/03/25 01:49:52;;;;;;;60.07;36.80;;;;;;;3.30;78.36;103044.91;5049407;28;20212;-71
2022/03/25 01:52:18;;;;;;;59.13;35.80;;;;;;;3.23;78.77;103040.13;5049296;28;20185;-72
2022/03/25 01:54:43;;;;;;;58.83;35.97;;;;;;;3.25;78.55;103046.19;5031396;28;20565;-71
2022/03/25 01:57:09;;;;;;;61.00;37.80;;;;;;;3.25;79.11;103042.03;5049456;28;20173;-71
2022/03/25 01:59:35;;;;;;;64.67;39.13;;;;;;;3.24;78.96;103045.31;5064971;28;20648;-71
2022/03/25 02:02:03;;;;;;;58.93;35.60;;;;;;;3.23;78.68;103043.56;5049099;28;20190;-74
2022/03/25 02:04:30;;;;;;;62.53;37.77;;;;;;;3.13;79.19;103038.44;5031540;28;20208;-71
2022/03/25 02:06:55;;;;;;;58.20;35.93;;;;;;;3.12;79.71;103044.28;5047874;28;20690;-71
2022/03/25 02:09:21;;;;;;;56.17;34.97;;;;;;;3.09;79.03;103038.94;5047754;28;20209;-71
2022/03/25 02:11:47;;;;;;;60.33;36.27;;;;;;;3.05;79.23;103042.00;5064552;28;20193;-72
2022/03/25 02:14:13;;;;;;;58.90;36.97;;;;;;;3.08;78.77;103043.91;5029263;28;20189;-72
2022/03/25 02:16:47;;;;;;;62.33;36.80;;;;;;;3.08;80.03;103046.44;5047865;28;20212;-71
2022/03/25 02:19:14;;;;;;;61.43;35.87;;;;;;;3.05;79.36;103042.00;5048950;28;20186;-71
2022/03/25 02:21:41;;;;;;;61.03;36.87;;;;;;;3.09;80.88;103045.66;5047655;28;20190;-72
2022/03/25 02:24:09;;;;;;;63.73;38.00;;;;;;;3.13;81.08;103040.13;5045767;28;20324;-72
2022/03/25 02:26:37;;;;;;;60.03;37.80;;;;;;;3.15;80.77;103038.59;5052391;28;20688;-73
2022/03/25 02:29:07;;;;;;;58.53;37.50;;;;;;;3.05;80.40;103034.41;5054726;28;20296;-73
2022/03/25 02:31:33;;;;;;;57.03;35.17;;;;;;;2.93;80.47;103040.06;5046948;28;20208;-72
2022/03/25 02:34:04;;;;;;;56.13;34.97;;;;;;;2.88;80.82;103038.78;5049759;28;20190;-72
2022/03/25 02:36:36;;;;;;;59.80;35.50;;;;;;;2.88;80.55;103038.78;5052866;28;20202;-72
2022/03/25 02:39:03;;;;;;;58.00;36.37;;;;;;;2.84;80.53;103040.16;5051276;28;20270;-72
2022/03/25 02:41:28;;;;;;;59.77;36.47;;;;;;;2.87;81.24;103042.97;5051433;28;20201;-72
2022/03/25 02:43:54;;;;;;;61.80;37.83;;;;;;;2.88;80.44;103033.72;5046180;28;20206;-72
2022/03/25 02:46:20;;;;;;;58.37;35.30;;;;;;;2.89;79.90;103031.31;5051211;28;20268;-72
2022/03/25 02:48:45;;;;;;;59.73;35.47;;;;;;;2.85;80.53;103033.47;5050950;28;20190;-72
2022/03/25 02:51:11;;;;;;;60.27;36.80;;;;;;;2.85;80.90;103028.44;5034499;28;20197;-72
2022/03/25 02:53:36;;;;;;;57.17;35.43;;;;;;;2.79;80.38;103038.00;5037479;28;20687;-72
2022/03/25 02:56:02;;;;;;;52.40;34.03;;;;;;;2.74;79.37;103029.13;5048626;28;20263;-71
2022/03/25 02:58:27;;;;;;;53.03;32.97;;;;;;;2.67;79.72;103025.19;5035978;28;20186;-72
2022/03/25 03:00:52;;;;;;;54.73;34.80;;;;;;;2.64;79.60;103032.53;5048618;28;20186;-72
2022/03/25 03:03:19;;;;;;;57.50;35.47;;;;;;;2.65;79.80;103033.41;5032514;28;20190;-72
2022/03/25 03:05:44;;;;;;;58.50;35.17;;;;;;;2.62;79.48;103035.69;5032106;28;20221;-71
2022/03/25 03:08:09;;;;;;;56.43;35.23;;;;;;;2.60;80.32;103034.66;5030956;28;20562;-72
2022/03/25 03:10:35;;;;;;;56.60;34.63;;;;;;;2.58;80.39;103029.47;5031827;28;20229;-72
2022/03/25 03:13:00;;;;;;;61.53;36.50;;;;;;;2.62;81.02;103035.69;5032369;28;20218;-72
2022/03/25 03:15:25;;;;;;;57.87;37.93;;;;;;;2.63;81.38;103040.88;5048133;28;20308;-72
2022/03/25 03:17:51;;;;;;;62.87;36.90;;;;;;;2.58;81.28;103036.19;5050779;28;20193;-72
2022/03/25 03:20:18;;;;;;;61.77;36.37;;;;;;;2.52;82.05;103041.59;5050438;28;20197;-71
2022/03/25 03:22:44;;;;;;;59.40;36.67;;;;;;;2.51;81.80;103038.91;5049690;28;20185;-71
2022/03/25 03:25:10;;;;;;;60.80;36.50;;;;;;;2.54;81.57;103040.09;5043893;28;20206;-71
2022/03/25 03:27:37;;;;;;;56.33;35.73;;;;;;;2.53;81.24;103034.91;5042527;28;20195;-71
2022/03/25 03:30:07;;;;;;;61.80;35.97;;;;;;;2.50;81.67;103044.75;5039519;28;20217;-71
2022/03/25 03:32:32;;;;;;;55.53;35.17;;;;;;;2.45;81.16;103038.41;5040373;28;20186;-71
2022/03/25 03:34:58;;;;;;;60.73;36.23;;;;;;;2.44;80.20;103039.16;5031875;28;20627;-71
2022/03/25 03:37:24;;;;;;;58.23;36.90;;;;;;;2.44;80.76;103040.03;5030008;28;20559;-72
2022/03/25 03:39:50;;;;;;;61.30;35.70;;;;;;;2.43;81.58;103045.84;5030423;28;20186;-71
2022/03/25 03:42:16;;;;;;;56.20;35.60;;;;;;;2.36;81.20;103041.03;5042455;28;20208;-71
2022/03/25 03:44:41;;;;;;;58.93;36.37;;;;;;;2.39;80.83;103035.34;5031306;28;20179;-70
2022/03/25 03:47:08;;;;;;;60.50;35.63;;;;;;;2.33;81.56;103035.69;5039930;28;20229;-71
2022/03/25 03:49:35;;;;;;;55.47;34.47;;;;;;;2.35;81.72;103033.31;5051744;28;20247;-70
2022/03/25 03:52:01;;;;;;;59.67;36.80;;;;;;;2.39;81.85;103038.75;5051463;28;20681;-73
2022/03/25 03:54:26;;;;;;;58.60;36.83;;;;;;;2.32;82.23;103043.13;5051196;28;20190;-73
2022/03/25 03:56:52;;;;;;;67.57;38.80;;;;;;;2.32;83.33;103043.13;5037207;28;20578;-73
2022/03/25 03:59:17;;;;;;;65.27;38.60;;;;;;;2.32;83.74;103038.09;5044010;28;20651;-71
2022/03/25 04:01:43;;;;;;;66.80;39.03;;;;;;;2.29;83.55;103031.13;5036774;28;20247;-71
2022/03/25 04:04:08;;;;;;;67.23;39.53;;;;;;;2.29;83.60;103037.84;5031392;28;20733;-72
2022/03/25 04:06:33;;;;;;;67.97;38.63;;;;;;;2.25;83.59;103035.78;5043826;28;20213;-73
2022/03/25 04:08:59;;;;;;;66.83;37.47;;;;;;;2.19;82.81;103041.19;5035758;28;20232;-71
2022/03/25 04:11:25;;;;;;;64.67;37.93;;;;;;;2.13;83.74;103038.13;5031177;28;20214;-71
2022/03/25 04:13:50;;;;;;;63.50;36.67;;;;;;;2.14;82.96;103037.38;5031281;28;20195;-71
2022/03/25 04:16:16;;;;;;;60.97;37.53;;;;;;;2.10;82.13;103037.84;5046374;28;20210;-71
2022/03/25 04:18:41;;;;;;;62.93;37.50;;;;;;;2.11;82.66;103036.22;5028998;28;20196;-71
2022/03/25 04:21:07;;;;;;;61.97;36.87;;;;;;;2.16;83.12;103040.03;5034755;28;20186;-71
2022/03/25 04:23:32;;;;;;;59.23;35.73;;;;;;;2.10;82.89;103042.00;5058869;28;20840;-72
2022/03/25 04:25:58;;;;;;;61.07;36.40;;;;;;;2.14;82.95;103046.56;5036141;28;20199;-71
2022/03/25 04:28:27;;;;;;;59.73;36.37;;;;;;;2.12;83.02;103043.91;5034805;28;20268;-71
2022/03/25 04:30:52;;;;;;;65.17;36.17;;;;;;;2.01;83.26;103049.66;5048528;28;20304;-71
2022/03/25 04:33:17;;;;;;;63.97;36.67;;;;;;;2.01;83.60;103043.72;5040212;28;20213;-71
2022/03/25 04:35:43;;;;;;;63.37;37.60;;;;;;;2.04;84.21;103042.38;5044056;28;20233;-71
2022/03/25 04:38:09;;;;;;;61.97;37.00;;;;;;;2.06;84.05;103047.56;5030454;28;20222;-71
2022/03/25 04:40:34;;;;;;;61.97;36.70;;;;;;;1.98;84.04;103038.41;5063618;28;20193;-72
2022/03/25 04:43:01;;;;;;;65.20;37.37;;;;;;;2.00;83.46;103047.00;5035522;28;20206;-71
2022/03/25 04:45:28;;;;;;;67.73;37.67;;;;;;;1.93;84.09;103049.75;5046395;28;20600;-71
2022/03/25 04:47:54;;;;;;;61.27;35.97;;;;;;;1.97;83.98;103047.63;5039027;28;20216;-71
2022/03/25 04:50:20;;;;;;;61.10;36.23;;;;;;;1.94;83.26;103052.41;5050203;28;20210;-71
2022/03/25 04:52:47;;;;;;;60.07;35.37;;;;;;;1.94;83.71;103054.94;5034591;28;20213;-71
2022/03/25 04:55:13;;;;;;;58.67;34.80;;;;;;;1.84;84.63;103059.03;5041050;28;20221;-71
2022/03/25 04:57:40;;;;;;;63.50;35.43;;;;;;;1.83;83.33;103058.13;5029988;28;20187;-71
2022/03/25 05:00:07;;;;;;;62.60;35.50;;;;;;;1.86;83.60;103055.00;5043443;28;20622;-71
2022/03/25 05:02:32;;;;;;;56.73;35.07;;;;;;;1.86;82.90;103055.00;5049321;28;20585;-73
2022/03/25 05:04:58;;;;;;;62.27;34.40;;;;;;;1.82;83.17;103060.50;5050109;28;20247;-73
2022/03/25 05:07:23;;;;;;;60.83;36.10;;;;;;;1.82;83.19;103060.50;5050487;28;20265;-71
2022/03/25 05:09:49;;;;;;;60.57;34.53;;;;;;;1.76;83.02;103060.88;5050376;28;20368;-71
2022/03/25 05:12:15;;;;;;;58.57;33.13;;;;;;;1.80;83.39;103062.94;5037149;28;20198;-71
2022/03/25 05:14:40;;;;;;;57.43;34.50;;;;;;;1.73;83.16;103059.69;5030162;28;20623;-71
2022/03/25 05:17:06;;;;;;;52.33;32.27;;;;;;;1.70;83.31;103057.78;5030089;28;20214;-71
2022/03/25 05:19:32;;;;;;;54.03;32.80;;;;;;;1.71;83.08;103069.69;5029876;28;20222;-72
2022/03/25 05:21:58;;;;;;;51.87;31.83;;;;;;;1.73;82.53;103065.63;5041639;28;20197;-73
2022/03/25 05:24:23;;;;;;;54.07;34.57;;;;;;;1.70;82.07;103069.53;5049768;28;20224;-71
2022/03/25 05:26:49;;;;;;;57.37;33.27;;;;;;;1.74;82.40;103074.97;5049343;28;20209;-74
2022/03/25 05:29:15;;;;;;;52.10;31.80;;;;;;;1.73;81.98;103077.34;5041669;28;20206;-71
2022/03/25 05:31:40;;;;;;;55.83;33.33;;;;;;;1.77;82.11;103076.88;5030972;28;20275;-71
2022/03/25 05:34:06;;;;;;;59.00;33.63;;;;;;;1.80;82.49;103078.09;5064612;28;20246;-71
2022/03/25 05:36:32;;;;;;;55.03;32.87;;;;;;;1.84;83.04;103081.75;5046242;28;20245;-72
2022/03/25 05:38:58;;;;;;;51.77;31.50;;;;;;;1.89;83.37;103091.50;5028660;28;20182;-71
2022/03/25 05:41:24;;;;;;;56.47;31.73;;;;;;;1.91;83.35;103084.06;5029484;28;20694;-72
2022/03/25 05:43:51;;;;;;;53.73;32.80;;;;;;;1.96;83.62;103081.22;5029249;28;20205;-72
2022/03/25 05:46:17;;;;;;;55.27;32.63;;;;;;;2.03;82.56;103077.59;5048088;28;20213;-74
2022/03/25 05:48:42;;;;;;;52.77;30.70;;;;;;;2.07;82.88;103077.97;5045420;28;20197;-72
2022/03/25 05:51:08;;;;;;;54.50;31.83;;;;;;;2.09;82.74;103089.13;5049178;28;20182;-71
2022/03/25 05:53:33;;;;;;;54.70;32.00;;;;;;;2.16;83.50;103083.84;5028241;28;20252;-72
2022/03/25 05:55:59;;;;;;;50.87;32.57;;;;;;;2.21;82.94;103081.75;5028198;28;20645;-71
2022/03/25 05:58:25;;;;;;;55.17;33.43;;;;;;;2.26;83.61;103088.97;5029607;28;20218;-72
2022/03/25 06:00:51;;;;;;;53.33;32.60;;;;;;;2.31;84.27;103091.91;5028075;28;20226;-71
2022/03/25 06:03:16;;;;;;;59.50;33.33;;;;;;;2.41;83.57;103092.84;5029562;28;20629;-74
2022/03/25 06:05:41;;;;;;;57.33;33.90;;;;;;;2.49;84.77;103085.94;5029308;28;20210;-71
2022/03/25 06:08:07;;;;;;;49.47;31.47;;;;;;;2.56;84.75;103099.25;5030602;28;20187;-73
2022/03/25 06:10:32;;;;;;;54.80;31.60;;;;;;;2.68;84.21;103094.38;5015701;28;20222;-71
2022/03/25 06:12:58;;;;;;;52.53;32.67;;;;;;;2.74;85.10;103097.41;5033260;28;20181;-71
2022/03/25 06:15:23;;;;;;;52.93;32.23;;;;;;;2.84;84.75;103099.97;5033454;28;20292;-71
2022/03/25 06:17:51;;;;;;;50.90;31.57;;;;;;;2.92;83.95;103094.84;5033678;28;20197;-71
2022/03/25 06:20:24;;;;;;;48.77;31.00;;;;;;;3.11;83.70;103107.41;5033645;28;20269;-73
2022/03/25 06:22:49;;;;;;;54.33;33.93;;;;;;;3.23;83.64;103099.22;5033219;28;20174;-72
2022/03/25 06:25:16;;;;;;;54.27;32.47;;;;;;;3.35;83.45;103100.25;5033105;28;20276;-71
2022/03/25 06:27:49;;;;;;;50.47;32.07;;;;;;;3.46;84.15;103112.19;5033202;28;20190;-71
2022/03/25 06:30:15;;;;;;;54.77;32.13;;;;;;;3.60;83.69;103098.13;5033122;28;20254;-71
2022/03/25 06:32:42;;;;;;;52.13;32.10;;;;;;;3.71;83.75;103100.78;5031781;28;20217;-71
2022/03/25 06:35:08;;;;;;;53.77;33.07;;;;;;;3.85;83.59;103106.97;5033060;28;20549;-71
2022/03/25 06:37:35;;;;;;;54.40;34.93;;;;;;;4.02;83.45;103107.63;5033051;28;20221;-71
2022/03/25 06:40:00;;;;;;;69.80;39.50;;;;;;;4.17;83.99;103107.94;5031376;28;20310;-71
2022/03/25 06:42:25;;;;;;;61.73;39.80;;;;;;;4.29;84.21;103109.84;5059806;28;20239;-71
2022/03/25 06:44:51;;;;;;;66.57;38.90;;;;;;;4.45;84.09;103110.31;5072680;28;20229;-72
2022/03/25 06:47:16;;;;;;;65.77;39.07;;;;;;;4.62;84.25;103104.94;5072681;28;20185;-72
2022/03/25 06:49:42;;;;;;;66.97;39.03;;;;;;;4.78;84.69;103112.09;5067423;28;20213;-72
2022/03/25 06:52:08;;;;;;;58.67;37.00;;;;;;;4.97;84.63;103107.69;5054741;28;20689;-74
2022/03/25 06:54:34;;;;;;;66.93;38.27;;;;;;;5.13;84.01;103108.09;5071274;28;20254;-71
2022/03/25 06:57:01;;;;;;;59.10;39.43;;;;;;;5.34;84.42;103110.63;5072600;28;20694;-72
2022/03/25 06:59:26;;;;;;;67.40;38.73;;;;;;;5.49;84.25;103109.28;5072613;28;20192;-72
2022/03/25 07:01:52;;;;;;;60.10;37.83;;;;;;;5.67;84.34;103117.41;5072174;28;20188;-71
2022/03/25 07:04:18;;;;;;;73.37;40.30;;;;;;;5.92;84.19;103116.84;5072410;28;20220;-72
2022/03/25 07:06:48;;;;;;;71.40;40.53;;;;;;;6.09;84.20;103113.00;5071062;28;20215;-72
2022/03/25 07:09:13;;;;;;;67.03;42.07;;;;;;;6.25;83.16;103115.88;5070920;28;20213;-72
2022/03/25 07:11:39;;;;;;;57.87;39.00;;;;;;;6.42;81.83;103115.44;5072099;28;20551;-72
2022/03/25 07:14:04;;;;;;;61.30;40.57;;;;;;;6.64;80.67;103108.59;5072293;28;20181;-71
2022/03/25 07:16:29;;;;;;;59.83;38.07;;;;;;;6.87;80.32;103113.63;5072041;28;20209;-71
2022/03/25 07:18:55;;;;;;;61.90;39.27;;;;;;;7.04;80.27;103119.13;5071218;28;20192;-71
2022/03/25 07:21:21;;;;;;;57.07;39.53;;;;;;;7.17;79.79;103119.22;5059138;28;20648;-71
2022/03/25 07:23:46;;;;;;;59.90;39.73;;;;;;;7.35;79.36;103114.50;5062447;28;20191;-71
2022/03/25 07:26:12;;;;;;;57.10;38.50;;;;;;;7.56;77.40;103113.41;5071975;28;20240;-71
2022/03/25 07:28:37;;;;;;;57.27;38.80;;;;;;;7.74;77.46;103115.53;5072147;28;20173;-72
2022/03/25 07:31:04;;;;;;;59.87;39.70;;;;;;;7.92;76.63;103116.75;5070704;28;20225;-72
2022/03/25 07:33:30;;;;;;;60.63;39.10;;;;;;;8.08;76.26;103113.53;5072217;28;20247;-72
2022/03/25 07:35:56;;;;;;;63.17;40.63;;;;;;;8.35;75.83;103118.84;5070478;28;20213;-71
2022/03/25 07:38:22;;;;;;;62.50;39.57;;;;;;;8.56;74.13;103111.63;5071679;28;20184;-71
2022/03/25 07:40:47;;;;;;;61.67;40.57;;;;;;;8.77;73.23;103111.34;5055387;28;20193;-72
2022/03/25 07:43:12;;;;;;;66.97;42.67;;;;;;;8.95;71.51;103112.50;5030448;28;20210;-72
2022/03/25 07:45:39;;;;;;;68.03;42.23;;;;;;;9.12;71.25;103119.50;5030182;28;20796;-71
2022/03/25 07:48:05;;;;;;;69.93;43.70;;;;;;;9.40;70.37;103125.50;5030384;28;20660;-72
2022/03/25 07:50:31;;;;;;;64.83;42.97;;;;;;;9.57;69.52;103127.41;5030257;28;20218;-72
2022/03/25 07:52:56;;;;;;;63.50;41.87;;;;;;;9.70;69.42;103126.47;5053078;28;20246;-72
2022/03/25 07:55:23;;;;;;;62.50;42.63;;;;;;;9.83;68.75;103116.19;5068604;28;20698;-71
2022/03/25 07:57:50;;;;;;;63.17;39.13;;;;;;;9.93;69.48;103123.59;5071409;28;20609;-70
2022/03/25 08:00:15;;;;;;;62.97;41.17;;;;;;;10.24;69.27;103124.63;5020185;28;20772;-71
2022/03/25 08:02:43;;;;;;;60.67;39.97;;;;;;;10.45;69.04;103120.69;5039810;28;20186;-72
2022/03/25 08:05:09;;;;;;;62.57;43.00;;;;;;;10.57;68.25;103124.84;5039781;28;20274;-73
2022/03/25 08:07:48;;;;;;;61.57;42.27;;;;;;;10.80;68.10;103134.69;5041515;28;20656;-72
2022/03/25 08:10:27;;;;;;;65.00;41.50;;;;;;;10.97;66.86;103133.03;5029345;28;20591;-73
2022/03/25 08:12:56;;;;;;;58.70;41.43;;;;;;;11.06;66.64;103138.66;5030718;28;20226;-72
2022/03/25 08:15:23;;;;;;;72.23;44.90;;;;;;;11.33;65.85;103143.56;5033916;28;20687;-73
2022/03/25 08:17:50;;;;;;;61.63;42.53;;;;;;;11.65;64.90;103130.78;5037522;28;20197;-72
2022/03/25 08:20:20;;;;;;;64.87;44.60;;;;;;;11.64;64.75;103140.97;5031081;28;20187;-71
2022/03/25 08:22:46;;;;;;;64.47;43.83;;;;;;;11.89;63.99;103138.88;5052342;28;20640;-73
2022/03/25 08:28:00;;;;;;;63.03;44.17;;;;;;;12.58;61.45;103145.78;5070651;28;20673;-71
2022/03/25 08:30:26;;;;;;;70.30;45.00;;;;;;;12.81;61.17;103144.34;5068488;28;20237;-71
2022/03/25 08:32:52;;;;;;;64.07;46.57;;;;;;;12.95;60.78;103146.72;5063505;28;20229;-72
2022/03/25 08:35:17;;;;;;;67.80;47.03;;;;;;;13.17;60.55;103146.03;5050533;28;20921;-72
2022/03/25 08:37:42;;;;;;;64.80;45.67;;;;;;;13.40;59.76;103150.53;5049171;28;20227;-70
2022/03/25 08:40:10;;;;;;;63.00;45.60;;;;;;;13.36;59.39;103151.25;5046148;28;20206;-72
2022/03/25 08:42:35;;;;;;;67.93;45.60;;;;;;;13.84;58.96;103148.25;5030289;28;20197;-72
2022/03/25 08:45:01;;;;;;;69.57;46.87;;;;;;;14.09;57.40;103151.03;5030271;28;20233;-71
2022/03/25 08:47:26;;;;;;;71.50;46.47;;;;;;;14.13;56.29;103139.19;5030407;28;20179;-70
2022/03/25 08:49:51;;;;;;;66.17;47.27;;;;;;;14.27;56.07;103143.25;5030239;28;20206;-70
2022/03/25 08:52:20;;;;;;;67.43;46.67;;;;;;;14.62;56.52;103142.97;5030283;28;20190;-72
2022/03/25 08:54:46;;;;;;;65.37;45.43;;;;;;;14.79;54.52;103137.66;5050977;28;20196;-70
2022/03/25 08:57:11;;;;;;;68.63;48.23;;;;;;;15.03;53.88;103136.03;5054151;28;20189;-72
2022/03/25 08:59:37;;;;;;;72.03;48.40;;;;;;;15.34;52.89;103140.66;5035804;28;20733;-72
2022/03/25 09:02:03;;;;;;;64.87;45.03;;;;;;;15.58;52.71;103133.78;5049758;28;20181;-71
2022/03/25 09:04:30;;;;;;;67.00;47.13;;;;;;;15.84;51.59;103136.47;5048623;28;20212;-71
2022/03/25 09:06:55;;;;;;;67.83;47.37;;;;;;;16.16;50.89;103137.59;5043735;28;20242;-71
2022/03/25 09:09:20;;;;;;;66.47;45.70;;;;;;;16.18;51.04;103129.03;5028519;28;20244;-70
2022/03/25 09:11:45;;;;;;;60.17;43.30;;;;;;;16.65;48.57;103135.75;5029736;28;20297;-70
2022/03/25 09:14:11;;;;;;;66.03;47.07;;;;;;;16.83;48.28;103128.56;5029817;28;20270;-72
2022/03/25 09:16:37;;;;;;;60.30;47.03;;;;;;;17.06;48.03;103132.72;5012007;28;20260;-71
2022/03/25 09:19:03;;;;;;;58.03;42.73;;;;;;;17.51;45.91;103129.81;5012030;28;20202;-71
2022/03/25 09:21:28;;;;;;;61.63;44.97;;;;;;;17.61;45.61;103134.41;5032612;28;20209;-71
2022/03/25 09:23:53;;;;;;;61.83;45.03;;;;;;;17.96;44.48;103119.78;5061294;28;20213;-72
2022/03/25 09:26:19;;;;;;;64.33;46.00;;;;;;;18.23;43.98;103120.50;5067994;28;20304;-70
2022/03/25 09:28:44;;;;;;;58.30;43.77;;;;;;;18.59;42.37;103129.16;5069220;28;20715;-71
2022/03/25 09:31:10;;;;;;;57.33;44.23;;;;;;;18.94;42.53;103126.53;5069230;28;20697;-72
2022/03/25 09:33:35;;;;;;;54.58;42.75;;;;;;;20.05;39.18;103127.91;5069856;28;20252;-72
2022/03/25 09:36:00;;;;;;;52.25;41.92;;;;;;;23.10;34.13;103106.19;5069591;28;20303;-72
2022/03/25 09:38:26;;;;;;;50.47;42.80;;;;;;;25.64;29.54;103106.06;5069955;28;20216;-71
2022/03/25 09:40:53;;;;;;;55.55;44.58;;;;;;;27.86;26.67;103099.25;5050539;28;20563;-70
2022/03/25 09:43:19;;;;;;;52.85;42.75;;;;;;;27.98;25.29;103106.97;5028427;28;20197;-71
2022/03/25 09:45:44;;;;;;;49.35;42.55;;;;;;;28.22;25.45;103097.75;5044448;28;20706;-71
2022/03/25 09:48:09;;;;;;;50.90;45.30;;;;;;;29.05;24.01;103099.69;5049342;28;20190;-70
2022/03/25 09:50:37;;;;;;;50.97;43.75;;;;;;;29.45;23.98;103101.47;5049154;28;20267;-70
2022/03/25 09:53:03;;;;;;;51.50;43.53;;;;;;;29.64;23.77;103091.34;5046597;28;20601;-69
2022/03/25 09:55:28;;;;;;;49.30;43.95;;;;;;;30.07;23.40;103105.28;5029653;28;20233;-70
2022/03/25 09:57:54;;;;;;;48.33;42.60;;;;;;;31.53;22.22;103099.34;5057496;28;20185;-71
2022/03/25 10:00:19;;;;;;;51.78;45.40;;;;;;;30.64;22.70;103095.81;5052004;28;20278;-71
2022/03/25 10:02:45;;;;;;;48.20;42.40;;;;;;;32.44;21.01;103102.50;5069195;28;20251;-71
2022/03/25 10:05:22;;;;;;;49.70;44.50;;;;;;;32.84;19.86;103092.22;5069209;28;20208;-71
2022/03/25 10:07:56;;;;;;;50.60;44.92;;;;;;;33.54;20.26;103092.13;5034485;28;20190;-71
2022/03/25 10:10:23;;;;;;;48.78;43.50;;;;;;;33.46;19.52;103091.56;5028912;28;20193;-70
2022/03/25 10:13:00;;;;;;;53.40;47.58;;;;;;;32.64;20.65;103097.38;5028708;28;20190;-71
2022/03/25 10:15:29;;;;;;;50.03;43.83;;;;;;;32.83;20.53;103095.81;5029020;28;20210;-71
2022/03/25 10:17:58;;;;;;;53.25;47.65;;;;;;;34.24;18.82;103088.25;5029077;28;20222;-73
2022/03/25 10:20:34;;;;;;;48.60;43.45;;;;;;;33.53;19.89;103086.88;5029052;28;20675;-72
2022/03/25 10:23:09;;;;;;;50.08;43.05;;;;;;;34.01;17.63;103093.72;5052521;28;20193;-69
2022/03/25 10:25:56;;;;;;;49.20;44.08;;;;;;;33.60;18.44;103097.19;5067785;28;20204;-71
2022/03/25 10:28:44;;;;;;;51.75;45.47;;;;;;;32.49;19.61;103097.91;5068913;28;20197;-71
2022/03/25 10:31:11;;;;;;;50.70;45.30;;;;;;;33.44;19.22;103092.53;5067142;28;20196;-71
2022/03/25 10:33:54;;;;;;;53.45;47.13;;;;;;;33.49;19.50;103087.91;5067473;28;20224;-71
2022/03/25 10:36:23;;;;;;;55.45;47.40;;;;;;;33.73;18.18;103086.91;5068805;28;20223;-71
2022/03/25 10:39:06;;;;;;;55.03;46.55;;;;;;;34.26;18.21;103085.53;5068817;28;20221;-71
2022/03/25 10:41:42;;;;;;;59.25;46.53;;;;;;;34.37;17.88;103084.19;5040363;28;20679;-71
2022/03/25 10:44:09;;;;;;;56.17;42.90;;;;;;;34.97;17.14;103084.09;5028999;28;20204;-70
2022/03/25 10:46:39;;;;;;;47.25;39.08;;;;;;;35.50;16.16;103081.56;5028901;28;20225;-72
2022/03/25 10:49:06;;;;;;;47.22;37.55;;;;;;;35.44;16.36;103080.03;5048734;28;20186;-71
2022/03/25 10:51:36;;;;;;;49.90;39.85;;;;;;;33.68;17.41;103083.56;5048880;28;20170;-70
2022/03/25 10:54:07;;;;;;;46.45;36.72;;;;;;;34.80;16.69;103080.50;5049266;28;20224;-70
2022/03/25 10:56:45;;;;;;;46.25;36.17;;;;;;;32.08;18.57;103090.53;5051274;28;20216;-71
2022/03/25 10:59:28;;;;;;;50.22;34.65;;;;;;;29.62;20.97;103094.03;5037124;28;20237;-70
2022/03/25 11:01:59;;;;;;;49.78;35.67;;;;;;;28.46;22.61;103092.94;5050885;28;20418;-71
2022/03/25 11:04:25;;;;;;;47.27;35.50;;;;;;;27.12;23.45;103099.38;5052337;28;20231;-70
2022/03/25 11:06:52;;;;;;;50.13;34.60;;;;;;;26.72;23.32;103097.25;5046634;28;20282;-70
2022/03/25 11:09:19;;;;;;;48.13;34.40;;;;;;;26.58;24.10;103093.91;5031852;28;20194;-72
2022/03/25 11:11:50;;;;;;;47.53;32.03;;;;;;;26.15;23.64;103097.81;5032136;28;20190;-71
2022/03/25 11:14:16;;;;;;;39.33;28.43;;;;;;;25.50;24.17;103094.75;5032455;28;20183;-71